sensor_id;sensor_type;location;lat;lon;timestamp;P1;durP1;ratioP1;P2;durP2;ratioP2
14326;SDS011;7247;53.330;-1.180;2023-06-19T00:02:06;30.17;;;24.33;;
14326;SDS011;7247;53.330;-1.180;2023-06-19T00:04:32;28.20;;;21.33;;
14326;SDS011;7247;53.330;-1.180;2023-06-19T00:06:59;25.27;;;21.47;;
14326;SDS011;7247;53.330;-1.180;2023-06-19T00:09:25;28.23;;;23.93;;
14326;SDS011;7247;53.330;-1.180;2023-06-19T00:11:52;32.83;;;24.27;;
14326;SDS011;7247;53.330;-1.180;2023-06-19T00:14:18;37.30;;;24.93;;
14326;SDS011;7247;53.330;-1.180;2023-06-19T00:16:45;34.33;;;25.13;;
14326;SDS011;7247;53.330;-1.180;2023-06-19T00:19:12;31.20;;;23.43;;
14326;SDS011;7247;53.330;-1.180;2023-06-19T00:21:39;35.50;;;25.40;;
14326;SDS011;7247;53.330;-1.180;2023-06-19T00:24:07;31.93;;;23.33;;
14326;SDS011;7247;53.330;-1.180;2023-06-19T00:26:34;37.17;;;24.43;;
14326;SDS011;7247;53.330;-1.180;2023-06-19T00:29:00;35.03;;;23.90;;
14326;SDS011;7247;53.330;-1.180;2023-06-19T00:31:27;33.40;;;23.17;;
14326;SDS011;7247;53.330;-1.180;2023-06-19T00:33:53;34.83;;;24.20;;
14326;SDS011;7247;53.330;-1.180;2023-06-19T00:36:21;35.17;;;24.67;;
14326;SDS011;7247;53.330;-1.180;2023-06-19T00:38:51;38.80;;;25.83;;
14326;SDS011;7247;53.330;-1.180;2023-06-19T00:41:17;42.60;;;25.50;;
14326;SDS011;7247;53.330;-1.180;2023-06-19T00:43:44;39.77;;;26.53;;
14326;SDS011;7247;53.330;-1.180;2023-06-19T00:46:10;36.70;;;25.87;;
14326;SDS011;7247;53.330;-1.180;2023-06-19T00:48:37;37.17;;;26.07;;
14326;SDS011;7247;53.330;-1.180;2023-06-19T00:51:04;39.00;;;26.03;;
14326;SDS011;7247;53.330;-1.180;2023-06-19T00:53:32;38.77;;;25.47;;
14326;SDS011;7247;53.330;-1.180;2023-06-19T00:55:59;39.27;;;26.50;;
14326;SDS011;7247;53.330;-1.180;2023-06-19T00:58:25;35.87;;;25.13;;
14326;SDS011;7247;53.330;-1.180;2023-06-19T01:00:52;34.17;;;24.63;;
14326;SDS011;7247;53.330;-1.180;2023-06-19T01:03:18;36.27;;;25.53;;
14326;SDS011;7247;53.330;-1.180;2023-06-19T01:05:45;37.43;;;25.90;;
14326;SDS011;7247;53.330;-1.180;2023-06-19T01:08:14;32.40;;;24.80;;
14326;SDS011;7247;53.330;-1.180;2023-06-19T01:10:47;31.37;;;23.60;;
14326;SDS011;7247;53.330;-1.180;2023-06-19T01:13:15;26.00;;;20.83;;
14326;SDS011;7247;53.330;-1.180;2023-06-19T01:15:43;26.40;;;20.97;;
14326;SDS011;7247;53.330;-1.180;2023-06-19T01:18:10;23.53;;;19.43;;
14326;SDS011;7247;53.330;-1.180;2023-06-19T01:20:37;20.17;;;17.77;;
14326;SDS011;7247;53.330;-1.180;2023-06-19T01:23:09;20.03;;;17.67;;
14326;SDS011;7247;53.330;-1.180;2023-06-19T01:25:36;18.30;;;16.30;;
14326;SDS011;7247;53.330;-1.180;2023-06-19T01:28:02;16.97;;;14.67;;
14326;SDS011;7247;53.330;-1.180;2023-06-19T01:30:31;16.87;;;15.07;;
14326;SDS011;7247;53.330;-1.180;2023-06-19T01:32:58;16.40;;;13.60;;
14326;SDS011;7247;53.330;-1.180;2023-06-19T01:35:27;14.13;;;12.73;;
14326;SDS011;7247;53.330;-1.180;2023-06-19T01:37:54;15.17;;;13.67;;
14326;SDS011;7247;53.330;-1.180;2023-06-19T01:40:22;16.63;;;14.17;;
14326;SDS011;7247;53.330;-1.180;2023-06-19T01:42:51;15.90;;;14.20;;
14326;SDS011;7247;53.330;-1.180;2023-06-19T01:45:17;16.93;;;14.90;;
14326;SDS011;7247;53.330;-1.180;2023-06-19T01:47:44;16.53;;;14.70;;
14326;SDS011;7247;53.330;-1.180;2023-06-19T01:50:10;17.87;;;15.43;;
14326;SDS011;7247;53.330;-1.180;2023-06-19T01:52:37;18.37;;;16.40;;
14326;SDS011;7247;53.330;-1.180;2023-06-19T01:55:04;18.93;;;16.53;;
14326;SDS011;7247;53.330;-1.180;2023-06-19T01:57:32;21.03;;;17.27;;
14326;SDS011;7247;53.330;-1.180;2023-06-19T01:59:58;19.43;;;17.10;;
14326;SDS011;7247;53.330;-1.180;2023-06-19T02:02:25;20.17;;;18.03;;
14326;SDS011;7247;53.330;-1.180;2023-06-19T02:04:51;19.80;;;17.63;;
14326;SDS011;7247;53.330;-1.180;2023-06-19T02:07:17;19.67;;;17.57;;
14326;SDS011;7247;53.330;-1.180;2023-06-19T02:09:44;21.07;;;18.57;;
14326;SDS011;7247;53.330;-1.180;2023-06-19T02:12:10;21.20;;;18.30;;
14326;SDS011;7247;53.330;-1.180;2023-06-19T02:14:38;20.70;;;18.20;;
14326;SDS011;7247;53.330;-1.180;2023-06-19T02:17:04;20.80;;;18.50;;
14326;SDS011;7247;53.330;-1.180;2023-06-19T02:19:31;20.53;;;18.50;;
14326;SDS011;7247;53.330;-1.180;2023-06-19T02:21:57;19.90;;;17.43;;
14326;SDS011;7247;53.330;-1.180;2023-06-19T02:24:23;22.37;;;19.03;;
14326;SDS011;7247;53.330;-1.180;2023-06-19T02:26:50;20.90;;;18.70;;
14326;SDS011;7247;53.330;-1.180;2023-06-19T02:29:16;21.67;;;18.90;;
14326;SDS011;7247;53.330;-1.180;2023-06-19T02:31:45;23.03;;;20.00;;
14326;SDS011;7247;53.330;-1.180;2023-06-19T02:34:11;24.83;;;20.83;;
14326;SDS011;7247;53.330;-1.180;2023-06-19T02:36:37;25.00;;;20.80;;
14326;SDS011;7247;53.330;-1.180;2023-06-19T02:39:04;24.43;;;21.10;;
14326;SDS011;7247;53.330;-1.180;2023-06-19T02:41:30;27.03;;;21.77;;
14326;SDS011;7247;53.330;-1.180;2023-06-19T02:43:57;27.43;;;22.33;;
14326;SDS011;7247;53.330;-1.180;2023-06-19T02:46:23;27.03;;;22.23;;
14326;SDS011;7247;53.330;-1.180;2023-06-19T02:48:51;27.67;;;23.47;;
14326;SDS011;7247;53.330;-1.180;2023-06-19T02:51:18;26.43;;;23.30;;
14326;SDS011;7247;53.330;-1.180;2023-06-19T02:53:44;27.57;;;23.63;;
14326;SDS011;7247;53.330;-1.180;2023-06-19T02:56:10;28.93;;;24.10;;
14326;SDS011;7247;53.330;-1.180;2023-06-19T02:58:37;26.30;;;23.47;;
14326;SDS011;7247;53.330;-1.180;2023-06-19T03:01:05;27.87;;;24.30;;
14326;SDS011;7247;53.330;-1.180;2023-06-19T03:03:33;27.17;;;23.33;;
14326;SDS011;7247;53.330;-1.180;2023-06-19T03:06:04;29.33;;;24.40;;
14326;SDS011;7247;53.330;-1.180;2023-06-19T03:08:31;27.17;;;23.47;;
14326;SDS011;7247;53.330;-1.180;2023-06-19T03:10:57;27.07;;;23.33;;
14326;SDS011;7247;53.330;-1.180;2023-06-19T03:13:24;25.47;;;22.63;;
14326;SDS011;7247;53.330;-1.180;2023-06-19T03:15:50;28.33;;;22.57;;
14326;SDS011;7247;53.330;-1.180;2023-06-19T03:18:17;27.27;;;22.83;;
14326;SDS011;7247;53.330;-1.180;2023-06-19T03:20:43;25.90;;;23.17;;
14326;SDS011;7247;53.330;-1.180;2023-06-19T03:23:11;29.30;;;22.67;;
14326;SDS011;7247;53.330;-1.180;2023-06-19T03:25:37;30.03;;;24.33;;
14326;SDS011;7247;53.330;-1.180;2023-06-19T03:28:07;26.83;;;23.33;;
14326;SDS011;7247;53.330;-1.180;2023-06-19T03:30:34;28.70;;;23.60;;
14326;SDS011;7247;53.330;-1.180;2023-06-19T03:33:00;26.23;;;23.33;;
14326;SDS011;7247;53.330;-1.180;2023-06-19T03:35:27;28.37;;;23.47;;
14326;SDS011;7247;53.330;-1.180;2023-06-19T03:37:53;25.20;;;22.50;;
14326;SDS011;7247;53.330;-1.180;2023-06-19T03:40:21;26.90;;;22.63;;
14326;SDS011;7247;53.330;-1.180;2023-06-19T03:42:47;27.43;;;22.63;;
14326;SDS011;7247;53.330;-1.180;2023-06-19T03:45:14;26.23;;;22.40;;
14326;SDS011;7247;53.330;-1.180;2023-06-19T03:47:40;26.57;;;22.67;;
14326;SDS011;7247;53.330;-1.180;2023-06-19T03:50:07;28.83;;;23.67;;
14326;SDS011;7247;53.330;-1.180;2023-06-19T03:52:35;27.97;;;23.07;;
14326;SDS011;7247;53.330;-1.180;2023-06-19T03:55:01;31.17;;;24.93;;
14326;SDS011;7247;53.330;-1.180;2023-06-19T03:57:29;30.17;;;25.17;;
14326;SDS011;7247;53.330;-1.180;2023-06-19T03:59:55;31.40;;;25.73;;
14326;SDS011;7247;53.330;-1.180;2023-06-19T04:02:22;35.10;;;27.47;;
14326;SDS011;7247;53.330;-1.180;2023-06-19T04:04:48;30.63;;;25.63;;
14326;SDS011;7247;53.330;-1.180;2023-06-19T04:07:15;31.00;;;26.57;;
14326;SDS011;7247;53.330;-1.180;2023-06-19T04:09:41;30.60;;;26.43;;
14326;SDS011;7247;53.330;-1.180;2023-06-19T04:12:08;31.63;;;26.43;;
14326;SDS011;7247;53.330;-1.180;2023-06-19T04:14:36;34.90;;;25.87;;
14326;SDS011;7247;53.330;-1.180;2023-06-19T04:17:02;33.23;;;25.40;;
14326;SDS011;7247;53.330;-1.180;2023-06-19T04:19:28;35.10;;;26.60;;
14326;SDS011;7247;53.330;-1.180;2023-06-19T04:21:55;34.13;;;25.33;;
14326;SDS011;7247;53.330;-1.180;2023-06-19T04:24:21;32.93;;;27.17;;
14326;SDS011;7247;53.330;-1.180;2023-06-19T04:26:48;29.97;;;26.03;;
14326;SDS011;7247;53.330;-1.180;2023-06-19T04:29:14;31.13;;;27.07;;
14326;SDS011;7247;53.330;-1.180;2023-06-19T04:31:43;33.83;;;27.40;;
14326;SDS011;7247;53.330;-1.180;2023-06-19T04:34:12;31.23;;;26.57;;
14326;SDS011;7247;53.330;-1.180;2023-06-19T04:36:39;29.77;;;24.43;;
14326;SDS011;7247;53.330;-1.180;2023-06-19T04:39:05;26.97;;;23.93;;
14326;SDS011;7247;53.330;-1.180;2023-06-19T04:41:32;26.97;;;23.80;;
14326;SDS011;7247;53.330;-1.180;2023-06-19T04:43:58;26.80;;;22.30;;
14326;SDS011;7247;53.330;-1.180;2023-06-19T04:46:25;23.67;;;21.27;;
14326;SDS011;7247;53.330;-1.180;2023-06-19T04:48:53;25.70;;;21.87;;
14326;SDS011;7247;53.330;-1.180;2023-06-19T04:51:20;25.60;;;21.20;;
14326;SDS011;7247;53.330;-1.180;2023-06-19T04:53:47;24.17;;;21.57;;
14326;SDS011;7247;53.330;-1.180;2023-06-19T04:56:13;25.93;;;22.80;;
14326;SDS011;7247;53.330;-1.180;2023-06-19T04:58:40;24.60;;;21.97;;
14326;SDS011;7247;53.330;-1.180;2023-06-19T05:01:11;24.07;;;21.47;;
14326;SDS011;7247;53.330;-1.180;2023-06-19T05:03:37;23.83;;;21.17;;
14326;SDS011;7247;53.330;-1.180;2023-06-19T05:06:05;24.67;;;22.03;;
14326;SDS011;7247;53.330;-1.180;2023-06-19T05:08:32;24.87;;;22.27;;
14326;SDS011;7247;53.330;-1.180;2023-06-19T05:10:58;26.93;;;22.57;;
14326;SDS011;7247;53.330;-1.180;2023-06-19T05:13:24;26.23;;;21.53;;
14326;SDS011;7247;53.330;-1.180;2023-06-19T05:15:51;24.00;;;21.50;;
14326;SDS011;7247;53.330;-1.180;2023-06-19T05:18:17;21.90;;;19.70;;
14326;SDS011;7247;53.330;-1.180;2023-06-19T05:20:44;23.13;;;20.73;;
14326;SDS011;7247;53.330;-1.180;2023-06-19T05:23:12;23.40;;;20.93;;
14326;SDS011;7247;53.330;-1.180;2023-06-19T05:25:38;22.43;;;20.10;;
14326;SDS011;7247;53.330;-1.180;2023-06-19T05:28:05;22.27;;;19.80;;
14326;SDS011;7247;53.330;-1.180;2023-06-19T05:30:31;24.67;;;20.47;;
14326;SDS011;7247;53.330;-1.180;2023-06-19T05:32:58;22.30;;;18.23;;
14326;SDS011;7247;53.330;-1.180;2023-06-19T05:35:24;22.10;;;19.80;;
14326;SDS011;7247;53.330;-1.180;2023-06-19T05:37:51;19.30;;;17.23;;
14326;SDS011;7247;53.330;-1.180;2023-06-19T05:40:19;19.60;;;16.93;;
14326;SDS011;7247;53.330;-1.180;2023-06-19T05:42:48;18.37;;;16.43;;
14326;SDS011;7247;53.330;-1.180;2023-06-19T05:45:15;16.80;;;15.07;;
14326;SDS011;7247;53.330;-1.180;2023-06-19T05:47:41;16.10;;;14.50;;
14326;SDS011;7247;53.330;-1.180;2023-06-19T05:50:08;16.27;;;14.40;;
14326;SDS011;7247;53.330;-1.180;2023-06-19T05:52:34;16.63;;;14.80;;
14326;SDS011;7247;53.330;-1.180;2023-06-19T05:55:01;17.33;;;14.67;;
14326;SDS011;7247;53.330;-1.180;2023-06-19T05:57:29;18.73;;;15.37;;
14326;SDS011;7247;53.330;-1.180;2023-06-19T05:59:55;16.63;;;15.03;;
14326;SDS011;7247;53.330;-1.180;2023-06-19T06:02:21;18.83;;;16.03;;
14326;SDS011;7247;53.330;-1.180;2023-06-19T06:04:48;17.70;;;15.10;;
14326;SDS011;7247;53.330;-1.180;2023-06-19T06:07:14;17.63;;;15.00;;
14326;SDS011;7247;53.330;-1.180;2023-06-19T06:09:40;19.00;;;16.40;;
14326;SDS011;7247;53.330;-1.180;2023-06-19T06:12:07;19.40;;;15.67;;
14326;SDS011;7247;53.330;-1.180;2023-06-19T06:14:35;18.57;;;16.57;;
14326;SDS011;7247;53.330;-1.180;2023-06-19T06:17:01;17.20;;;15.17;;
14326;SDS011;7247;53.330;-1.180;2023-06-19T06:19:30;16.17;;;14.53;;
14326;SDS011;7247;53.330;-1.180;2023-06-19T06:21:56;19.50;;;15.40;;
14326;SDS011;7247;53.330;-1.180;2023-06-19T06:24:23;16.57;;;14.93;;
14326;SDS011;7247;53.330;-1.180;2023-06-19T06:26:49;16.27;;;13.77;;
14326;SDS011;7247;53.330;-1.180;2023-06-19T06:29:15;20.23;;;14.47;;
14326;SDS011;7247;53.330;-1.180;2023-06-19T06:31:45;17.80;;;14.10;;
14326;SDS011;7247;53.330;-1.180;2023-06-19T06:34:12;15.67;;;14.07;;
14326;SDS011;7247;53.330;-1.180;2023-06-19T06:36:38;17.20;;;13.23;;
14326;SDS011;7247;53.330;-1.180;2023-06-19T06:39:05;15.93;;;12.27;;
14326;SDS011;7247;53.330;-1.180;2023-06-19T06:41:31;15.77;;;12.40;;
14326;SDS011;7247;53.330;-1.180;2023-06-19T06:43:58;16.80;;;12.50;;
14326;SDS011;7247;53.330;-1.180;2023-06-19T06:46:24;14.70;;;12.17;;
14326;SDS011;7247;53.330;-1.180;2023-06-19T06:48:52;14.17;;;12.17;;
14326;SDS011;7247;53.330;-1.180;2023-06-19T06:51:18;14.10;;;11.73;;
14326;SDS011;7247;53.330;-1.180;2023-06-19T06:53:45;13.67;;;12.00;;
14326;SDS011;7247;53.330;-1.180;2023-06-19T06:56:11;15.57;;;11.50;;
14326;SDS011;7247;53.330;-1.180;2023-06-19T06:58:37;14.13;;;11.33;;
14326;SDS011;7247;53.330;-1.180;2023-06-19T07:01:04;12.93;;;11.23;;
14326;SDS011;7247;53.330;-1.180;2023-06-19T07:03:31;13.33;;;10.97;;
14326;SDS011;7247;53.330;-1.180;2023-06-19T07:05:58;13.43;;;11.03;;
14326;SDS011;7247;53.330;-1.180;2023-06-19T07:08:26;14.43;;;10.73;;
14326;SDS011;7247;53.330;-1.180;2023-06-19T07:10:52;14.30;;;10.10;;
14326;SDS011;7247;53.330;-1.180;2023-06-19T07:13:18;12.93;;;10.43;;
14326;SDS011;7247;53.330;-1.180;2023-06-19T07:15:45;12.50;;;10.53;;
14326;SDS011;7247;53.330;-1.180;2023-06-19T07:18:11;16.10;;;9.60;;
14326;SDS011;7247;53.330;-1.180;2023-06-19T07:20:38;10.80;;;9.53;;
14326;SDS011;7247;53.330;-1.180;2023-06-19T07:23:05;12.00;;;9.23;;
14326;SDS011;7247;53.330;-1.180;2023-06-19T07:25:32;13.20;;;9.40;;
14326;SDS011;7247;53.330;-1.180;2023-06-19T07:27:59;10.73;;;8.80;;
14326;SDS011;7247;53.330;-1.180;2023-06-19T07:30:25;11.83;;;9.20;;
14326;SDS011;7247;53.330;-1.180;2023-06-19T07:32:51;10.70;;;9.07;;
14326;SDS011;7247;53.330;-1.180;2023-06-19T07:35:18;11.40;;;8.83;;
14326;SDS011;7247;53.330;-1.180;2023-06-19T07:37:44;13.87;;;9.60;;
14326;SDS011;7247;53.330;-1.180;2023-06-19T07:40:12;10.53;;;8.93;;
14326;SDS011;7247;53.330;-1.180;2023-06-19T07:42:39;12.50;;;9.00;;
14326;SDS011;7247;53.330;-1.180;2023-06-19T07:45:05;13.50;;;8.73;;
14326;SDS011;7247;53.330;-1.180;2023-06-19T07:47:32;11.50;;;9.03;;
14326;SDS011;7247;53.330;-1.180;2023-06-19T07:49:58;11.13;;;9.33;;
14326;SDS011;7247;53.330;-1.180;2023-06-19T07:52:25;12.73;;;7.43;;
14326;SDS011;7247;53.330;-1.180;2023-06-19T07:54:51;11.27;;;7.30;;
14326;SDS011;7247;53.330;-1.180;2023-06-19T07:57:19;9.17;;;7.10;;
14326;SDS011;7247;53.330;-1.180;2023-06-19T07:59:46;11.43;;;7.03;;
14326;SDS011;7247;53.330;-1.180;2023-06-19T08:02:12;10.13;;;6.90;;
14326;SDS011;7247;53.330;-1.180;2023-06-19T08:04:39;10.37;;;7.03;;
14326;SDS011;7247;53.330;-1.180;2023-06-19T08:07:05;12.00;;;7.03;;
14326;SDS011;7247;53.330;-1.180;2023-06-19T08:09:32;11.40;;;7.37;;
14326;SDS011;7247;53.330;-1.180;2023-06-19T08:11:58;11.77;;;7.60;;
14326;SDS011;7247;53.330;-1.180;2023-06-19T08:14:26;9.20;;;7.03;;
14326;SDS011;7247;53.330;-1.180;2023-06-19T08:16:52;9.77;;;7.20;;
14326;SDS011;7247;53.330;-1.180;2023-06-19T08:19:18;8.73;;;6.70;;
14326;SDS011;7247;53.330;-1.180;2023-06-19T08:21:45;9.43;;;6.70;;
14326;SDS011;7247;53.330;-1.180;2023-06-19T08:24:11;9.33;;;6.50;;
14326;SDS011;7247;53.330;-1.180;2023-06-19T08:26:38;9.17;;;6.73;;
14326;SDS011;7247;53.330;-1.180;2023-06-19T08:29:04;11.23;;;6.67;;
14326;SDS011;7247;53.330;-1.180;2023-06-19T08:31:32;11.00;;;6.60;;
14326;SDS011;7247;53.330;-1.180;2023-06-19T08:33:59;12.00;;;6.70;;
14326;SDS011;7247;53.330;-1.180;2023-06-19T08:36:25;6.83;;;5.53;;
14326;SDS011;7247;53.330;-1.180;2023-06-19T08:38:51;7.60;;;5.43;;
14326;SDS011;7247;53.330;-1.180;2023-06-19T08:41:18;7.23;;;5.60;;
14326;SDS011;7247;53.330;-1.180;2023-06-19T08:43:45;10.50;;;6.17;;
14326;SDS011;7247;53.330;-1.180;2023-06-19T08:46:13;9.07;;;5.43;;
14326;SDS011;7247;53.330;-1.180;2023-06-19T08:48:41;8.67;;;5.73;;
14326;SDS011;7247;53.330;-1.180;2023-06-19T08:51:07;6.10;;;5.43;;
14326;SDS011;7247;53.330;-1.180;2023-06-19T08:53:36;7.67;;;5.77;;
14326;SDS011;7247;53.330;-1.180;2023-06-19T08:56:03;8.10;;;5.90;;
14326;SDS011;7247;53.330;-1.180;2023-06-19T08:58:29;7.77;;;6.00;;
14326;SDS011;7247;53.330;-1.180;2023-06-19T09:00:57;8.07;;;5.60;;
14326;SDS011;7247;53.330;-1.180;2023-06-19T09:03:23;5.93;;;5.10;;
14326;SDS011;7247;53.330;-1.180;2023-06-19T09:05:51;9.83;;;6.20;;
14326;SDS011;7247;53.330;-1.180;2023-06-19T09:08:18;6.30;;;5.33;;
14326;SDS011;7247;53.330;-1.180;2023-06-19T09:10:53;9.70;;;5.90;;
14326;SDS011;7247;53.330;-1.180;2023-06-19T09:13:20;10.50;;;5.83;;
14326;SDS011;7247;53.330;-1.180;2023-06-19T09:15:46;7.50;;;5.30;;
14326;SDS011;7247;53.330;-1.180;2023-06-19T09:18:12;7.43;;;5.70;;
14326;SDS011;7247;53.330;-1.180;2023-06-19T09:20:40;9.03;;;6.07;;
14326;SDS011;7247;53.330;-1.180;2023-06-19T09:23:10;7.60;;;5.53;;
14326;SDS011;7247;53.330;-1.180;2023-06-19T09:25:46;8.43;;;5.60;;
14326;SDS011;7247;53.330;-1.180;2023-06-19T09:28:19;8.33;;;5.80;;
14326;SDS011;7247;53.330;-1.180;2023-06-19T09:30:55;8.83;;;6.07;;
14326;SDS011;7247;53.330;-1.180;2023-06-19T09:33:22;7.00;;;5.43;;
14326;SDS011;7247;53.330;-1.180;2023-06-19T09:35:49;6.03;;;5.40;;
14326;SDS011;7247;53.330;-1.180;2023-06-19T09:38:17;7.47;;;5.60;;
14326;SDS011;7247;53.330;-1.180;2023-06-19T09:40:45;9.83;;;6.07;;
14326;SDS011;7247;53.330;-1.180;2023-06-19T09:43:11;6.83;;;6.10;;
14326;SDS011;7247;53.330;-1.180;2023-06-19T09:45:39;10.07;;;6.50;;
14326;SDS011;7247;53.330;-1.180;2023-06-19T09:48:06;8.60;;;6.10;;
14326;SDS011;7247;53.330;-1.180;2023-06-19T09:50:34;12.27;;;6.83;;
14326;SDS011;7247;53.330;-1.180;2023-06-19T09:53:02;9.30;;;6.20;;
14326;SDS011;7247;53.330;-1.180;2023-06-19T09:55:31;9.13;;;6.20;;
14326;SDS011;7247;53.330;-1.180;2023-06-19T09:57:58;7.60;;;6.00;;
14326;SDS011;7247;53.330;-1.180;2023-06-19T10:00:25;6.97;;;5.40;;
14326;SDS011;7247;53.330;-1.180;2023-06-19T10:02:56;7.20;;;5.03;;
14326;SDS011;7247;53.330;-1.180;2023-06-19T10:05:29;7.00;;;5.00;;
14326;SDS011;7247;53.330;-1.180;2023-06-19T10:07:56;7.63;;;5.37;;
14326;SDS011;7247;53.330;-1.180;2023-06-19T10:10:25;5.63;;;4.93;;
14326;SDS011;7247;53.330;-1.180;2023-06-19T10:12:53;5.67;;;4.30;;
14326;SDS011;7247;53.330;-1.180;2023-06-19T10:15:21;6.37;;;5.00;;
14326;SDS011;7247;53.330;-1.180;2023-06-19T10:17:48;6.73;;;5.00;;
14326;SDS011;7247;53.330;-1.180;2023-06-19T10:20:21;6.50;;;5.20;;
14326;SDS011;7247;53.330;-1.180;2023-06-19T10:22:51;6.17;;;5.50;;
14326;SDS011;7247;53.330;-1.180;2023-06-19T10:25:21;7.00;;;5.50;;
14326;SDS011;7247;53.330;-1.180;2023-06-19T10:27:48;8.63;;;5.13;;
14326;SDS011;7247;53.330;-1.180;2023-06-19T10:30:18;6.93;;;4.97;;
14326;SDS011;7247;53.330;-1.180;2023-06-19T10:32:45;5.30;;;4.80;;
14326;SDS011;7247;53.330;-1.180;2023-06-19T10:35:12;7.10;;;5.23;;
14326;SDS011;7247;53.330;-1.180;2023-06-19T10:37:39;5.33;;;4.77;;
14326;SDS011;7247;53.330;-1.180;2023-06-19T10:40:06;6.03;;;5.00;;
14326;SDS011;7247;53.330;-1.180;2023-06-19T10:42:35;6.67;;;5.20;;
14326;SDS011;7247;53.330;-1.180;2023-06-19T10:45:02;5.20;;;4.70;;
14326;SDS011;7247;53.330;-1.180;2023-06-19T10:47:30;6.47;;;4.80;;
14326;SDS011;7247;53.330;-1.180;2023-06-19T10:49:56;6.57;;;4.53;;
14326;SDS011;7247;53.330;-1.180;2023-06-19T10:52:23;5.97;;;4.43;;
14326;SDS011;7247;53.330;-1.180;2023-06-19T10:54:52;6.80;;;4.93;;
14326;SDS011;7247;53.330;-1.180;2023-06-19T10:57:19;4.70;;;4.20;;
14326;SDS011;7247;53.330;-1.180;2023-06-19T10:59:52;5.23;;;4.40;;
14326;SDS011;7247;53.330;-1.180;2023-06-19T11:02:18;5.57;;;4.40;;
14326;SDS011;7247;53.330;-1.180;2023-06-19T11:04:46;5.80;;;4.33;;
14326;SDS011;7247;53.330;-1.180;2023-06-19T11:07:12;6.17;;;4.80;;
14326;SDS011;7247;53.330;-1.180;2023-06-19T11:09:39;7.50;;;4.60;;
14326;SDS011;7247;53.330;-1.180;2023-06-19T11:12:05;5.97;;;4.33;;
14326;SDS011;7247;53.330;-1.180;2023-06-19T11:14:33;4.87;;;4.40;;
14326;SDS011;7247;53.330;-1.180;2023-06-19T11:17:04;8.17;;;4.70;;
14326;SDS011;7247;53.330;-1.180;2023-06-19T11:19:31;5.73;;;4.07;;
14326;SDS011;7247;53.330;-1.180;2023-06-19T11:22:00;5.13;;;3.97;;
14326;SDS011;7247;53.330;-1.180;2023-06-19T11:24:28;5.47;;;4.00;;
14326;SDS011;7247;53.330;-1.180;2023-06-19T11:26:55;5.00;;;3.60;;
14326;SDS011;7247;53.330;-1.180;2023-06-19T11:29:24;4.70;;;3.80;;
14326;SDS011;7247;53.330;-1.180;2023-06-19T11:31:51;4.00;;;3.60;;
14326;SDS011;7247;53.330;-1.180;2023-06-19T11:34:19;4.72;;;3.80;;
14326;SDS011;7247;53.330;-1.180;2023-06-19T11:36:46;6.00;;;4.10;;
14326;SDS011;7247;53.330;-1.180;2023-06-19T11:39:14;5.40;;;3.93;;
14326;SDS011;7247;53.330;-1.180;2023-06-19T11:41:40;6.30;;;4.10;;
14326;SDS011;7247;53.330;-1.180;2023-06-19T11:44:08;5.43;;;4.10;;
14326;SDS011;7247;53.330;-1.180;2023-06-19T11:46:35;6.10;;;4.53;;
14326;SDS011;7247;53.330;-1.180;2023-06-19T11:49:08;5.97;;;4.47;;
14326;SDS011;7247;53.330;-1.180;2023-06-19T11:51:35;7.07;;;4.20;;
14326;SDS011;7247;53.330;-1.180;2023-06-19T11:54:01;5.78;;;4.05;;
14326;SDS011;7247;53.330;-1.180;2023-06-19T11:56:29;5.97;;;4.30;;
14326;SDS011;7247;53.330;-1.180;2023-06-19T11:58:55;6.30;;;4.30;;
14326;SDS011;7247;53.330;-1.180;2023-06-19T12:01:22;4.87;;;4.20;;
14326;SDS011;7247;53.330;-1.180;2023-06-19T12:03:48;4.87;;;4.17;;
14326;SDS011;7247;53.330;-1.180;2023-06-19T12:06:16;6.03;;;4.30;;
14326;SDS011;7247;53.330;-1.180;2023-06-19T12:08:43;6.17;;;4.50;;
14326;SDS011;7247;53.330;-1.180;2023-06-19T12:11:09;5.73;;;4.33;;
14326;SDS011;7247;53.330;-1.180;2023-06-19T12:13:39;5.00;;;3.97;;
14326;SDS011;7247;53.330;-1.180;2023-06-19T12:16:06;7.03;;;4.80;;
14326;SDS011;7247;53.330;-1.180;2023-06-19T12:18:32;6.50;;;4.87;;
14326;SDS011;7247;53.330;-1.180;2023-06-19T12:20:59;6.03;;;4.67;;
14326;SDS011;7247;53.330;-1.180;2023-06-19T12:23:25;7.40;;;5.43;;
14326;SDS011;7247;53.330;-1.180;2023-06-19T12:25:51;12.37;;;6.27;;
14326;SDS011;7247;53.330;-1.180;2023-06-19T12:28:18;8.57;;;5.70;;
14326;SDS011;7247;53.330;-1.180;2023-06-19T12:30:45;7.37;;;5.87;;
14326;SDS011;7247;53.330;-1.180;2023-06-19T12:33:13;7.93;;;5.47;;
14326;SDS011;7247;53.330;-1.180;2023-06-19T12:35:39;7.10;;;5.80;;
14326;SDS011;7247;53.330;-1.180;2023-06-19T12:38:06;5.78;;;5.22;;
14326;SDS011;7247;53.330;-1.180;2023-06-19T12:40:33;6.55;;;5.78;;
14326;SDS011;7247;53.330;-1.180;2023-06-19T12:42:59;6.82;;;5.75;;
14326;SDS011;7247;53.330;-1.180;2023-06-19T12:45:26;6.53;;;5.90;;
14326;SDS011;7247;53.330;-1.180;2023-06-19T12:47:53;6.30;;;5.70;;
14326;SDS011;7247;53.330;-1.180;2023-06-19T12:50:20;6.28;;;5.70;;
14326;SDS011;7247;53.330;-1.180;2023-06-19T12:52:47;5.18;;;4.70;;
14326;SDS011;7247;53.330;-1.180;2023-06-19T12:55:13;6.28;;;5.38;;
14326;SDS011;7247;53.330;-1.180;2023-06-19T12:57:40;6.50;;;5.90;;
14326;SDS011;7247;53.330;-1.180;2023-06-19T13:00:07;7.53;;;5.65;;
14326;SDS011;7247;53.330;-1.180;2023-06-19T13:02:34;6.78;;;5.70;;
14326;SDS011;7247;53.330;-1.180;2023-06-19T13:05:02;6.32;;;5.57;;
14326;SDS011;7247;53.330;-1.180;2023-06-19T13:07:28;6.85;;;6.18;;
14326;SDS011;7247;53.330;-1.180;2023-06-19T13:09:54;7.38;;;5.85;;
14326;SDS011;7247;53.330;-1.180;2023-06-19T13:12:21;6.13;;;5.45;;
14326;SDS011;7247;53.330;-1.180;2023-06-19T13:14:48;7.45;;;5.70;;
14326;SDS011;7247;53.330;-1.180;2023-06-19T13:17:14;6.53;;;5.40;;
14326;SDS011;7247;53.330;-1.180;2023-06-19T13:19:40;6.85;;;5.53;;
14326;SDS011;7247;53.330;-1.180;2023-06-19T13:22:08;7.63;;;5.20;;
14326;SDS011;7247;53.330;-1.180;2023-06-19T13:24:35;6.28;;;5.32;;
14326;SDS011;7247;53.330;-1.180;2023-06-19T13:27:01;7.93;;;5.72;;
14326;SDS011;7247;53.330;-1.180;2023-06-19T13:29:28;6.22;;;5.63;;
14326;SDS011;7247;53.330;-1.180;2023-06-19T13:31:54;7.60;;;5.15;;
14326;SDS011;7247;53.330;-1.180;2023-06-19T13:34:20;5.90;;;4.75;;
14326;SDS011;7247;53.330;-1.180;2023-06-19T13:36:47;8.00;;;4.50;;
14326;SDS011;7247;53.330;-1.180;2023-06-19T13:39:15;7.07;;;4.65;;
14326;SDS011;7247;53.330;-1.180;2023-06-19T13:41:44;6.57;;;4.75;;
14326;SDS011;7247;53.330;-1.180;2023-06-19T13:44:10;4.93;;;4.43;;
14326;SDS011;7247;53.330;-1.180;2023-06-19T13:46:37;7.15;;;5.00;;
14326;SDS011;7247;53.330;-1.180;2023-06-19T13:49:04;6.07;;;4.63;;
14326;SDS011;7247;53.330;-1.180;2023-06-19T13:51:30;6.05;;;4.57;;
14326;SDS011;7247;53.330;-1.180;2023-06-19T13:53:57;6.05;;;4.07;;
14326;SDS011;7247;53.330;-1.180;2023-06-19T13:56:25;5.13;;;4.53;;
14326;SDS011;7247;53.330;-1.180;2023-06-19T13:58:51;4.68;;;4.25;;
14326;SDS011;7247;53.330;-1.180;2023-06-19T14:01:18;4.82;;;4.20;;
14326;SDS011;7247;53.330;-1.180;2023-06-19T14:03:44;5.75;;;4.43;;
14326;SDS011;7247;53.330;-1.180;2023-06-19T14:06:11;6.20;;;4.32;;
14326;SDS011;7247;53.330;-1.180;2023-06-19T14:08:38;4.97;;;4.32;;
14326;SDS011;7247;53.330;-1.180;2023-06-19T14:11:05;6.68;;;3.88;;
14326;SDS011;7247;53.330;-1.180;2023-06-19T14:13:32;6.15;;;4.68;;
14326;SDS011;7247;53.330;-1.180;2023-06-19T14:15:59;6.20;;;4.28;;
14326;SDS011;7247;53.330;-1.180;2023-06-19T14:18:25;7.25;;;4.43;;
14326;SDS011;7247;53.330;-1.180;2023-06-19T14:20:51;5.38;;;4.00;;
14326;SDS011;7247;53.330;-1.180;2023-06-19T14:23:18;4.53;;;3.78;;
14326;SDS011;7247;53.330;-1.180;2023-06-19T14:25:44;5.35;;;4.00;;
14326;SDS011;7247;53.330;-1.180;2023-06-19T14:28:11;4.70;;;3.95;;
14326;SDS011;7247;53.330;-1.180;2023-06-19T14:30:40;4.78;;;3.80;;
14326;SDS011;7247;53.330;-1.180;2023-06-19T14:33:07;6.15;;;4.10;;